PPR-pyyntö

Ennakkolupa on pakollinen lentoonlähtöjä ja laskuja varten. Pyydä ennakkolupa tästä.

Laskukierrosvaraus

Tee ensin PPR-pyyntö, sitten vasta laskukierrosvaraus. Hinta 5 € / 15 min.

Aerodrome Info

Updated 18 NOV 2017 16:37 LT

  • Some asphalt damage south of RWY 36 threshold.
  • Water pools on aprons and taxiways.
  • Preferred RWY=

Contact duty officer at +358 20 7545 129 for more information.

Weather


Helsinki Malmi lentokenttä
AWS ILHF 210810Z AUTO 05003KT 9999 BKN003 OVC028 01/00 Q1007=

METAR EFHK 210820Z 04008KT 9000 -SN BKN003 01/00 Q1007 NOSIG=
TAF EFHK 210532Z 2106/2206 01007KT 9999 BKN005 TEMPO 2106/2109 4000 -SN BKN002 TEMPO 2109/2118 4000 -SHSN BKN010 SCT020CB PROB40 TEMPO 2118/2206 0500 FZFG VV002=

Helsinki-Malmin lentoasema

Tervetuloa Helsinki-Malmin lentokentälle

Malmin lentokenttäyhdistys ry on yleishyödyllinen yhdistys, joka toimii Suomen vilkkaimman yleisilmailukentän, Helsinki-Malmin operaattorina. Yhdistyksen toiminnassa ovat mukana kentällä toimivat yhteisöt sekä suuri joukko yleisilmailijoita.

Malmin lentokentän toiminta rahoitetaan jäsen- ja kausikorttimaksuin. Ole mukana jatkamassa Malmin lentotoimintaa ja liity jäseneksi!